Amelia Island, Florida
Current Conditions -  °F | °C
As of 6:15 PM on Thursday 27 Nov 2014 (Local Time) from KFHB Reporting Station
Clear Clear  
Wind Chill: 13°   Ceiling: Unl
Heat Index: 13°   Visibility: 10mi
Dew Point:   Wind: 8mph
Humidity: 47%   Direction: 310°NW
Pressure: 30.24"   Gusts: NA
Location:  30.6056°N, 81.5268°W
Report Text: KFHB 272315Z AUTO 31007KT 10SM CLR 13/02 A3024 RMK AO1
Loading
Personal Weather Stations






























Interactive Weather Map New forecast layout! Learn more

10-Day Weather Forecast

Advertisements
Track Severe Weather on mobile